CheckWX is a tool to help pilots better visualize weather data.  It is not intended as a substitute for an official pre-flight weather briefing.

11:54:20 UTC

MGGT METAR
La Aurora Airport
Guatemala City, Guatemala
Current

54 mins ago

MGGT 241100Z 03008KT 9999 FEW014 BKN080 18/16 Q1022 A3018
Observed
May-24 @ 11:00 UTC
Wind
  • 030° at 8 KTS
Visibility
10,000+ meters
Flight Rules
VFR
Cloud Levels
  • Few at 1,400' AGL
  • Broken at 8,000' AGL
Temperature
18°C / 64°F
Dewpoint
16°C / 61°F
Humidity
88%
Altimeter
30.18" Hg
Pressure
1021.92 hPa
Previous

1 hour ago

MGGT 241035Z 03006KT 9999 FEW014 BKN080
Observed
May-24 @ 10:35 UTC
Wind
  • 030° at 6 KTS
Visibility
10,000+ meters
Flight Rules
VFR
Cloud Levels
  • Few at 1,400' AGL
  • Broken at 8,000' AGL
Previous

2 hours ago

MGGT 241000Z 01008KT 9999 -DZ FEW014 BKN080 19/17 Q1022 A3018
Observed
May-24 @ 10:00 UTC
Wind
  • 010° at 8 KTS
Visibility
10,000+ meters
Flight Rules
VFR
Conditions
Light Drizzle
Cloud Levels
  • Few at 1,400' AGL
  • Broken at 8,000' AGL
Temperature
19°C / 66°F
Dewpoint
17°C / 63°F
Humidity
88%
Altimeter
30.18" Hg
Pressure
1021.92 hPa